Barao, Brazil
Current Conditions -  °F | °C
As of 10:00 AM on Sunday 21 Dec 2014 (Local Time) from SBCO Reporting Station
Overcast Overcast  
Wind Chill: 72°   Ceiling: 8000
Heat Index: 72°   Visibility: 6mi
Dew Point: 70°   Wind: 9mph
Humidity: 94%   Direction: 100°E
Pressure: 29.56"   Gusts: NA
Location:  29.38°S, 51.5°W
Report Text: SBCO 211200Z 10008KT 9999 FEW008 OVC080 22/21 Q1001
Loading
Personal Weather Stations






























Interactive Weather Map New forecast layout! Learn more

10-Day Weather Forecast

Advertisements
Track Severe Weather on mobile